Elmore City, Oklahoma
Current Conditions -  °F | °C
As of 6:35 PM on Friday 24 Oct 2014 (Local Time) from KPVJ Reporting Station
Clear Clear  
Wind Chill: 78°   Ceiling: Unl
Heat Index: 80°   Visibility: 10mi
Dew Point: 61°   Wind: 5mph
Humidity: 56%   Direction: 190°S
Pressure: 30.03"   Gusts: NA
Location:  34.62°N, 97.4°W
Report Text: KPVJ 242335Z AUTO 19004KT 10SM CLR 26/16 A3003 RMK AO2 T02560162
Loading
Personal Weather Stations






























Interactive Weather Map
Tropical Storm Tracking
New forecast layout! Learn more

10-Day Weather Forecast

Advertisements
Track Severe Weather on mobile